Time;durP1;ratioP1;P1;durP2;ratioP2;P2;SDS_P1;SDS_P2;PMS_P1;PMS_P2;Temp;Humidity;BMP_temperature;BMP_pressure;BME280_temperature;BME280_humidity;BME280_pressure;Samples;Min_cycle;Max_cycle;Signal;HPM_P1;HPM_P2
2021/10/14 00:02:24;;;;;;;9.77;7.10;;;;;;;4.84;100.00;99209.44;5074391;28;20692;-61
2021/10/14 00:04:51;;;;;;;10.07;7.30;;;;;;;4.81;100.00;99213.00;5074582;28;20215;-61
2021/10/14 00:07:17;;;;;;;8.90;6.70;;;;;;;4.77;100.00;99208.75;5074737;28;20227;-61
2021/10/14 00:09:44;;;;;;;10.17;6.40;;;;;;;4.71;100.00;99211.56;5074583;28;20226;-62
2021/10/14 00:12:10;;;;;;;9.67;6.30;;;;;;;4.65;100.00;99211.72;5074294;28;20211;-62
2021/10/14 00:14:37;;;;;;;9.20;6.80;;;;;;;4.62;100.00;99206.59;5074431;28;20239;-61
2021/10/14 00:17:05;;;;;;;7.50;6.07;;;;;;;4.58;100.00;99201.50;5073611;28;20218;-62
2021/10/14 00:19:31;;;;;;;9.60;7.20;;;;;;;4.63;100.00;99200.44;5073008;28;20241;-61
2021/10/14 00:21:58;;;;;;;8.57;6.80;;;;;;;4.62;100.00;99205.72;5074443;28;20212;-61
2021/10/14 00:24:24;;;;;;;8.40;6.67;;;;;;;4.64;100.00;99207.41;5074342;28;20215;-61
2021/10/14 00:26:51;;;;;;;10.27;6.70;;;;;;;4.66;100.00;99205.63;5074206;28;20266;-61
2021/10/14 00:29:17;;;;;;;7.63;5.87;;;;;;;4.68;100.00;99216.03;5074240;28;20224;-61
2021/10/14 00:31:44;;;;;;;7.30;6.27;;;;;;;4.67;100.00;99217.81;5073854;28;20221;-61
2021/10/14 00:34:11;;;;;;;7.17;6.03;;;;;;;4.65;100.00;99216.97;5074124;28;20240;-61
2021/10/14 00:36:38;;;;;;;8.33;5.77;;;;;;;4.62;100.00;99216.19;5074091;28;20232;-61
2021/10/14 00:39:04;;;;;;;8.17;5.77;;;;;;;4.59;100.00;99217.13;5074134;28;20591;-61
2021/10/14 00:41:31;;;;;;;7.17;5.40;;;;;;;4.63;100.00;99217.91;5074147;28;20242;-61
2021/10/14 00:43:58;;;;;;;7.97;5.80;;;;;;;4.65;100.00;99216.13;5073753;28;20221;-61
2021/10/14 00:46:25;;;;;;;7.93;6.10;;;;;;;4.62;100.00;99227.53;5072211;28;20244;-61
2021/10/14 00:48:51;;;;;;;6.97;5.53;;;;;;;4.58;100.00;99220.66;5073935;28;20216;-61
2021/10/14 00:51:19;;;;;;;8.37;5.63;;;;;;;4.63;100.00;99213.53;5073913;28;20252;-61
2021/10/14 00:53:47;;;;;;;7.03;5.53;;;;;;;4.60;100.00;99212.78;5074215;28;20218;-61
2021/10/14 00:56:15;;;;;;;6.83;5.57;;;;;;;4.64;100.00;99210.00;5073821;28;20214;-62
2021/10/14 00:58:42;;;;;;;7.83;5.53;;;;;;;4.59;100.00;99217.13;5065347;28;20220;-61
2021/10/14 01:01:08;;;;;;;5.43;4.93;;;;;;;4.53;100.00;99216.47;5064459;28;20571;-61
2021/10/14 01:03:35;;;;;;;6.77;4.87;;;;;;;4.46;100.00;99210.53;5067360;28;20226;-62
2021/10/14 01:06:01;;;;;;;5.90;5.20;;;;;;;4.46;100.00;99207.06;5067390;28;20248;-61
2021/10/14 01:08:30;;;;;;;6.57;4.90;;;;;;;4.44;100.00;99211.47;5064014;28;20226;-61
2021/10/14 01:10:56;;;;;;;7.07;5.00;;;;;;;4.36;100.00;99216.94;5064364;28;20684;-61
2021/10/14 01:13:23;;;;;;;7.43;5.67;;;;;;;4.37;100.00;99231.75;5072010;28;20221;-61
2021/10/14 01:15:50;;;;;;;6.13;5.23;;;;;;;4.40;100.00;99220.34;5073536;28;20249;-61
2021/10/14 01:18:16;;;;;;;8.30;5.27;;;;;;;4.38;100.00;99222.97;5073118;28;20234;-61
2021/10/14 01:20:44;;;;;;;7.43;5.40;;;;;;;4.38;100.00;99212.50;5073187;28;20220;-61
2021/10/14 01:23:12;;;;;;;7.27;5.93;;;;;;;4.38;100.00;99212.50;5073095;28;20212;-61
2021/10/14 01:25:39;;;;;;;6.90;5.90;;;;;;;4.52;100.00;99202.50;5072849;28;20245;-61
2021/10/14 01:28:05;;;;;;;7.87;5.77;;;;;;;4.66;100.00;99205.63;5073004;28;20222;-61
2021/10/14 01:30:32;;;;;;;7.53;6.20;;;;;;;4.82;100.00;99204.25;5073333;28;20233;-61
2021/10/14 01:32:58;;;;;;;6.73;6.03;;;;;;;4.85;100.00;99198.94;5073230;28;20218;-61
2021/10/14 01:35:25;;;;;;;8.20;5.90;;;;;;;4.82;100.00;99191.16;5073326;28;20236;-61
2021/10/14 01:37:52;;;;;;;6.93;6.13;;;;;;;4.76;100.00;99186.09;5071347;28;20210;-61
2021/10/14 01:40:19;;;;;;;7.03;5.60;;;;;;;4.71;100.00;99185.38;5072950;28;20223;-62
2021/10/14 01:42:46;;;;;;;8.30;5.70;;;;;;;4.66;100.00;99186.41;5066518;28;20589;-62
2021/10/14 01:45:12;;;;;;;6.30;5.23;;;;;;;4.64;100.00;99186.44;5073148;28;20217;-61
2021/10/14 01:47:39;;;;;;;9.93;5.77;;;;;;;4.54;100.00;99192.88;5072755;28;20245;-61
2021/10/14 01:50:07;;;;;;;6.63;5.53;;;;;;;4.46;100.00;99189.59;5073101;28;20685;-61
2021/10/14 01:52:34;;;;;;;6.83;5.30;;;;;;;4.40;100.00;99184.53;5072769;28;20708;-61
2021/10/14 01:55:02;;;;;;;7.13;5.60;;;;;;;4.34;100.00;99184.69;5073071;28;20577;-61
2021/10/14 01:57:28;;;;;;;8.53;5.63;;;;;;;4.32;100.00;99178.66;5072719;28;20211;-61
2021/10/14 01:59:55;;;;;;;8.57;5.67;;;;;;;4.27;100.00;99185.78;5072660;28;20217;-61
2021/10/14 02:02:21;;;;;;;6.73;5.67;;;;;;;4.20;100.00;99184.22;5073007;28;20217;-61
2021/10/14 02:04:48;;;;;;;7.17;5.63;;;;;;;4.14;100.00;99186.13;5070928;28;20226;-61
2021/10/14 02:07:14;;;;;;;9.57;6.17;;;;;;;4.21;100.00;99178.09;5072591;28;20238;-61
2021/10/14 02:09:41;;;;;;;6.13;5.53;;;;;;;4.21;100.00;99175.47;5072712;28;20214;-61
2021/10/14 02:12:09;;;;;;;7.10;6.33;;;;;;;4.19;100.00;99169.44;5072745;28;20217;-61
2021/10/14 02:14:35;;;;;;;7.30;5.20;;;;;;;4.18;100.00;99182.56;5072671;28;20246;-61
2021/10/14 02:17:01;;;;;;;7.50;5.53;;;;;;;4.16;100.00;99179.97;5072642;28;20216;-61
2021/10/14 02:19:28;;;;;;;6.97;5.37;;;;;;;4.07;100.00;99177.63;5072445;28;20217;-61
2021/10/14 02:21:54;;;;;;;6.27;4.93;;;;;;;4.01;100.00;99180.41;5072840;28;20580;-61
2021/10/14 02:24:21;;;;;;;7.20;5.07;;;;;;;3.97;100.00;99178.75;5072479;28;20213;-61
2021/10/14 02:26:47;;;;;;;7.20;5.93;;;;;;;3.96;100.00;99184.00;5072510;28;20249;-61
2021/10/14 02:29:15;;;;;;;6.60;5.47;;;;;;;3.88;100.00;99175.53;5071558;28;20215;-61
2021/10/14 02:31:42;;;;;;;9.13;6.27;;;;;;;3.89;100.00;99183.34;5065472;28;20218;-62
2021/10/14 02:34:09;;;;;;;6.10;5.20;;;;;;;3.90;100.00;99182.44;5072641;28;20218;-61
2021/10/14 02:36:36;;;;;;;6.63;5.20;;;;;;;3.85;100.00;99189.53;5072477;28;20213;-61
2021/10/14 02:39:03;;;;;;;8.37;5.43;;;;;;;3.82;100.00;99186.13;5072377;28;20219;-61
2021/10/14 02:41:29;;;;;;;8.73;5.80;;;;;;;3.81;100.00;99182.69;5076088;28;20213;-61
2021/10/14 02:43:56;;;;;;;8.87;6.07;;;;;;;3.80;100.00;99186.16;5076077;28;20295;-61
2021/10/14 02:46:24;;;;;;;7.77;6.27;;;;;;;3.78;100.00;99179.28;5076082;28;20576;-61
2021/10/14 02:48:50;;;;;;;10.63;7.47;;;;;;;3.77;100.00;99170.56;5070065;28;20236;-61
2021/10/14 02:51:16;;;;;;;10.70;7.40;;;;;;;3.78;100.00;99176.69;5076305;28;20234;-61
2021/10/14 02:53:43;;;;;;;10.00;7.40;;;;;;;3.82;100.00;99176.56;5075885;28;20217;-61
2021/10/14 02:56:09;;;;;;;11.47;8.27;;;;;;;3.85;100.00;99181.69;5074409;28;20590;-61
2021/10/14 02:58:36;;;;;;;12.67;8.87;;;;;;;3.96;100.00;99184.88;5075871;28;20216;-61
2021/10/14 03:01:02;;;;;;;12.27;8.83;;;;;;;4.04;100.00;99185.53;5075959;28;20580;-61
2021/10/14 03:03:32;;;;;;;11.77;8.47;;;;;;;4.15;100.00;99191.34;5075969;28;20209;-61
2021/10/14 03:05:59;;;;;;;14.80;9.63;;;;;;;4.22;100.00;99186.81;5075961;28;20219;-61
2021/10/14 03:08:25;;;;;;;11.67;9.03;;;;;;;4.30;100.00;99183.09;5075856;28;20237;-61
2021/10/14 03:10:52;;;;;;;12.63;9.27;;;;;;;4.37;100.00;99182.00;5075747;28;20218;-61
2021/10/14 03:13:18;;;;;;;12.33;9.80;;;;;;;4.37;100.00;99174.16;5075778;28;20242;-61
2021/10/14 03:15:45;;;;;;;11.50;9.53;;;;;;;4.42;100.00;99177.53;5075510;28;20259;-61
2021/10/14 03:18:11;;;;;;;13.83;10.00;;;;;;;4.45;100.00;99177.41;5075298;28;20214;-61
2021/10/14 03:20:39;;;;;;;14.03;9.87;;;;;;;4.48;100.00;99185.19;5075352;28;20217;-61
2021/10/14 03:23:06;;;;;;;12.37;9.63;;;;;;;4.55;100.00;99178.88;5073959;28;20217;-62
2021/10/14 03:25:32;;;;;;;16.03;9.63;;;;;;;4.59;100.00;99177.88;5075518;28;20237;-61
2021/10/14 03:27:58;;;;;;;12.70;10.17;;;;;;;4.67;100.00;99172.41;5075293;28;20249;-61
2021/10/14 03:30:25;;;;;;;12.07;9.30;;;;;;;4.65;100.00;99164.59;5075461;28;20218;-61
2021/10/14 03:32:51;;;;;;;10.93;8.70;;;;;;;4.58;100.00;99168.31;5075146;28;20218;-61
2021/10/14 03:35:18;;;;;;;9.50;7.97;;;;;;;4.57;100.00;99171.81;5074979;28;20221;-61
2021/10/14 03:37:46;;;;;;;10.70;7.87;;;;;;;4.46;100.00;99167.81;5075109;28;20217;-61
2021/10/14 03:40:13;;;;;;;10.73;8.30;;;;;;;4.34;100.00;99166.38;5075274;28;20217;-61
2021/10/14 03:42:39;;;;;;;12.67;8.50;;;;;;;4.28;100.00;99171.78;5075139;28;20214;-61
2021/10/14 03:45:07;;;;;;;10.00;7.97;;;;;;;4.25;100.00;99174.50;5074873;28;20707;-61
2021/10/14 03:47:34;;;;;;;10.33;7.73;;;;;;;4.17;100.00;99171.22;5067292;28;20240;-61
2021/10/14 03:50:00;;;;;;;10.87;8.00;;;;;;;4.14;100.00;99181.78;5075110;28;20222;-61
2021/10/14 03:52:27;;;;;;;10.60;7.27;;;;;;;4.09;100.00;99182.81;5073764;28;20224;-61
2021/10/14 03:54:55;;;;;;;11.80;8.37;;;;;;;4.10;100.00;99187.97;5074649;28;20215;-61
2021/10/14 03:57:21;;;;;;;11.53;7.90;;;;;;;4.06;100.00;99191.59;5074833;28;20215;-61
2021/10/14 03:59:47;;;;;;;10.00;7.93;;;;;;;4.03;100.00;99199.50;5074769;28;20221;-61
2021/10/14 04:02:14;;;;;;;10.87;7.33;;;;;;;4.03;100.00;99194.28;5074831;28;20243;-61
2021/10/14 04:04:40;;;;;;;9.67;7.43;;;;;;;4.07;100.00;99195.94;5074914;28;20242;-61
2021/10/14 04:07:07;;;;;;;10.43;7.47;;;;;;;4.13;100.00;99200.13;5074517;28;20244;-61
2021/10/14 04:09:33;;;;;;;10.43;7.33;;;;;;;4.23;100.00;99201.59;5074805;28;20214;-61
2021/10/14 04:12:01;;;;;;;10.50;8.13;;;;;;;4.28;100.00;99213.66;5074677;28;20209;-61
2021/10/14 04:14:29;;;;;;;10.10;7.60;;;;;;;4.33;100.00;99208.31;5072857;28;20242;-61
2021/10/14 04:16:55;;;;;;;9.07;7.53;;;;;;;4.43;100.00;99209.75;5074305;28;20223;-61
2021/10/14 04:19:22;;;;;;;10.43;8.53;;;;;;;4.46;100.00;99207.06;5074595;28;20219;-61
2021/10/14 04:21:48;;;;;;;13.03;8.07;;;;;;;4.51;100.00;99208.66;5074172;28;20701;-61
2021/10/14 04:24:15;;;;;;;10.03;7.77;;;;;;;4.58;100.00;99210.19;5074446;28;20254;-61
2021/10/14 04:26:42;;;;;;;11.90;7.50;;;;;;;4.63;100.00;99203.06;5073891;28;20324;-61
2021/10/14 04:29:10;;;;;;;10.87;7.33;;;;;;;4.65;100.00;99205.66;5073940;28;20213;-61
2021/10/14 04:31:37;;;;;;;11.90;7.30;;;;;;;4.67;100.00;99214.31;5074232;28;20228;-61
2021/10/14 04:34:06;;;;;;;10.27;7.00;;;;;;;4.67;100.00;99215.19;5074264;28;20220;-61
2021/10/14 04:36:32;;;;;;;8.97;7.60;;;;;;;4.70;100.00;99206.38;5073945;28;20588;-61
2021/10/14 04:39:00;;;;;;;9.30;7.27;;;;;;;4.74;100.00;99208.88;5074215;28;20225;-61
2021/10/14 04:41:26;;;;;;;9.97;7.63;;;;;;;4.80;100.00;99211.31;5072360;28;20213;-61
2021/10/14 04:43:53;;;;;;;11.20;8.30;;;;;;;4.81;100.00;99202.53;5073936;28;20228;-61
2021/10/14 04:46:21;;;;;;;12.83;8.10;;;;;;;4.85;100.00;99204.19;5073769;28;20282;-62
2021/10/14 04:48:47;;;;;;;11.47;7.77;;;;;;;4.87;100.00;99202.34;5067717;28;20219;-62
2021/10/14 04:51:14;;;;;;;9.50;7.23;;;;;;;4.86;100.00;99205.88;5073761;28;20221;-61
2021/10/14 04:53:41;;;;;;;9.83;7.40;;;;;;;4.81;100.00;99199.91;5073972;28;20214;-61
2021/10/14 04:56:07;;;;;;;10.63;6.90;;;;;;;4.80;100.00;99208.69;5073842;28;20221;-61
2021/10/14 04:58:34;;;;;;;8.43;6.93;;;;;;;4.83;100.00;99205.97;5073843;28;20211;-61
2021/10/14 05:01:00;;;;;;;7.67;6.70;;;;;;;4.87;100.00;99207.59;5069437;28;20620;-62
2021/10/14 05:03:28;;;;;;;10.33;7.57;;;;;;;4.92;100.00;99205.69;5073374;28;20219;-61
2021/10/14 05:05:54;;;;;;;9.70;8.03;;;;;;;5.01;100.00;99200.16;5071778;28;20677;-61
2021/10/14 05:08:21;;;;;;;10.30;7.50;;;;;;;5.01;100.00;99200.16;5073236;28;20238;-62
2021/10/14 05:10:47;;;;;;;11.03;7.83;;;;;;;5.05;100.00;99206.16;5073557;28;20218;-63
2021/10/14 05:13:14;;;;;;;9.00;7.30;;;;;;;5.11;100.00;99200.75;5073437;28;20226;-61
2021/10/14 05:15:41;;;;;;;8.37;6.70;;;;;;;5.08;100.00;99199.06;5073646;28;20251;-61
2021/10/14 05:18:08;;;;;;;9.17;6.90;;;;;;;5.12;100.00;99203.34;5073463;28;20215;-61
2021/10/14 05:20:36;;;;;;;7.07;6.13;;;;;;;5.14;100.00;99205.91;5073540;28;20214;-61
2021/10/14 05:23:02;;;;;;;9.50;5.97;;;;;;;5.13;100.00;99199.81;5067092;28;20224;-61
2021/10/14 05:25:29;;;;;;;9.63;6.30;;;;;;;5.15;100.00;99200.63;5073229;28;20214;-61
2021/10/14 05:27:55;;;;;;;9.10;5.80;;;;;;;5.13;100.00;99202.41;5073152;28;20242;-61
2021/10/14 05:30:22;;;;;;;7.93;6.50;;;;;;;5.11;100.00;99200.75;5072895;28;20230;-61
2021/10/14 05:32:48;;;;;;;7.87;6.27;;;;;;;5.04;100.00;99199.22;5071482;28;20214;-61
2021/10/14 05:35:15;;;;;;;6.70;6.00;;;;;;;5.03;100.00;99195.78;5073105;28;20221;-61
2021/10/14 05:37:43;;;;;;;8.83;6.47;;;;;;;5.09;100.00;99208.69;5073244;28;20219;-61
2021/10/14 05:40:10;;;;;;;10.17;5.90;;;;;;;5.09;100.00;99197.31;5073061;28;20218;-61
2021/10/14 05:42:36;;;;;;;6.33;5.20;;;;;;;5.06;100.00;99193.03;5072892;28;20224;-61
2021/10/14 05:45:03;;;;;;;8.30;6.13;;;;;;;5.07;100.00;99189.50;5073238;28;20237;-61
2021/10/14 05:47:30;;;;;;;9.03;6.40;;;;;;;5.02;100.00;99190.56;5073046;28;20242;-61
2021/10/14 05:49:56;;;;;;;12.97;6.70;;;;;;;4.92;100.00;99196.97;5072960;28;20220;-61
2021/10/14 05:52:23;;;;;;;8.30;6.30;;;;;;;4.94;100.00;99197.81;5072847;28;20887;-61
2021/10/14 05:54:50;;;;;;;8.00;6.47;;;;;;;4.93;100.00;99194.31;5073198;28;20214;-61
2021/10/14 05:57:17;;;;;;;9.17;7.00;;;;;;;5.00;100.00;99187.97;5071676;28;20214;-61
2021/10/14 05:59:44;;;;;;;8.60;6.20;;;;;;;4.96;100.00;99183.72;5072383;28;20214;-61
2021/10/14 06:02:11;;;;;;;11.67;7.37;;;;;;;4.92;100.00;99184.75;5072684;28;20215;-61
2021/10/14 06:04:37;;;;;;;12.10;6.93;;;;;;;4.90;100.00;99189.16;5073130;28;20614;-62
2021/10/14 06:07:04;;;;;;;9.70;7.30;;;;;;;4.92;100.00;99194.34;5072747;28;20234;-61
2021/10/14 06:09:30;;;;;;;9.37;7.43;;;;;;;4.98;100.00;99195.03;5072608;28;20702;-61
2021/10/14 06:11:58;;;;;;;9.27;6.87;;;;;;;5.04;100.00;99200.09;5072412;28;20211;-61
2021/10/14 06:14:24;;;;;;;10.93;7.20;;;;;;;5.15;100.00;99197.16;5073441;28;20211;-62
2021/10/14 06:16:51;;;;;;;10.03;7.37;;;;;;;5.23;100.00;99200.38;5074764;28;20237;-61
2021/10/14 06:19:17;;;;;;;8.53;7.30;;;;;;;5.29;100.00;99214.16;5076890;28;20218;-61
2021/10/14 06:21:44;;;;;;;10.77;7.73;;;;;;;5.35;100.00;99216.59;5077012;28;20232;-62
2021/10/14 06:24:11;;;;;;;11.37;6.90;;;;;;;5.45;100.00;99214.53;5075013;28;20214;-61
2021/10/14 06:26:38;;;;;;;11.17;7.90;;;;;;;5.47;100.00;99216.19;5076334;28;20616;-62
2021/10/14 06:29:06;;;;;;;9.70;7.03;;;;;;;5.51;100.00;99204.69;5069822;28;20722;-61
2021/10/14 06:31:32;;;;;;;12.70;7.57;;;;;;;5.62;100.00;99202.59;5076437;28;20220;-62
2021/10/14 06:33:59;;;;;;;9.87;7.87;;;;;;;5.67;100.00;99200.69;5076430;28;20667;-61
2021/10/14 06:36:25;;;;;;;11.50;7.90;;;;;;;5.74;100.00;99198.72;5076571;28;20219;-61
2021/10/14 06:38:52;;;;;;;9.97;7.70;;;;;;;5.82;100.00;99196.72;5076650;28;20215;-61
2021/10/14 06:41:18;;;;;;;10.57;7.97;;;;;;;5.85;100.00;99186.97;5076208;28;20593;-61
2021/10/14 06:43:45;;;;;;;10.80;7.70;;;;;;;5.90;100.00;99186.81;5076397;28;20257;-61
2021/10/14 06:46:12;;;;;;;10.20;7.80;;;;;;;5.99;100.00;99189.16;5076087;28;20230;-61
2021/10/14 06:48:39;;;;;;;8.20;6.73;;;;;;;6.07;100.00;99187.97;5075767;28;20246;-62
2021/10/14 06:51:05;;;;;;;11.37;6.83;;;;;;;6.22;100.00;99187.44;5074288;28;20211;-61
2021/10/14 06:53:32;;;;;;;12.07;7.63;;;;;;;6.39;100.00;99189.44;5076243;28;20215;-61
2021/10/14 06:55:59;;;;;;;8.77;7.10;;;;;;;6.53;100.00;99201.19;5076383;28;20223;-61
2021/10/14 06:58:26;;;;;;;7.63;6.80;;;;;;;6.65;100.00;99203.34;5075752;28;20268;-61
2021/10/14 07:00:52;;;;;;;11.67;7.80;;;;;;;6.79;100.00;99203.69;5075939;28;20219;-61
2021/10/14 07:03:20;;;;;;;10.37;7.13;;;;;;;6.91;100.00;99208.50;5068958;28;20707;-61
2021/10/14 07:05:47;;;;;;;10.00;7.53;;;;;;;7.01;100.00;99206.41;5075960;28;20224;-61
2021/10/14 07:08:13;;;;;;;9.63;7.57;;;;;;;7.10;100.00;99209.53;5075524;28;20235;-61
2021/10/14 07:10:44;;;;;;;8.70;6.53;;;;;;;7.19;100.00;99211.78;5075883;28;20218;-62
2021/10/14 07:13:11;;;;;;;9.70;6.50;;;;;;;7.27;100.00;99220.22;5069371;28;20216;-61
2021/10/14 07:15:37;;;;;;;10.83;7.30;;;;;;;7.35;100.00;99219.03;5073920;28;20713;-61
2021/10/14 07:18:04;;;;;;;10.40;7.10;;;;;;;7.41;100.00;99223.22;5072366;28;20219;-61
2021/10/14 07:20:32;;;;;;;10.90;6.77;;;;;;;7.46;100.00;99221.22;5073495;28;20218;-61
2021/10/14 07:22:58;;;;;;;10.17;6.57;;;;;;;7.48;100.00;99224.69;5073682;28;20247;-62
2021/10/14 07:25:25;;;;;;;9.07;6.43;;;;;;;7.50;100.00;99225.47;5072968;28;20668;-61
2021/10/14 07:27:51;;;;;;;9.73;6.87;;;;;;;7.55;100.00;99226.13;5074864;28;20292;-61
2021/10/14 07:30:18;;;;;;;9.03;6.67;;;;;;;7.68;100.00;99224.72;5075539;28;20220;-62
2021/10/14 07:32:44;;;;;;;9.13;6.47;;;;;;;7.77;100.00;99224.38;5075232;28;20581;-62
2021/10/14 07:35:11;;;;;;;7.97;6.37;;;;;;;7.85;100.00;99219.63;5075330;28;20221;-63
2021/10/14 07:37:38;;;;;;;8.27;6.90;;;;;;;7.93;100.00;99223.66;5075336;28;20219;-63
2021/10/14 07:40:06;;;;;;;9.30;6.80;;;;;;;8.00;100.00;99229.53;5075354;28;20208;-63
2021/10/14 07:42:33;;;;;;;8.13;6.40;;;;;;;8.06;100.00;99224.00;5073740;28;20223;-62
2021/10/14 07:44:59;;;;;;;9.17;6.53;;;;;;;8.02;100.00;99223.28;5075276;28;20214;-63
2021/10/14 07:47:25;;;;;;;7.57;6.47;;;;;;;7.92;100.00;99215.81;5075140;28;20219;-63
2021/10/14 07:49:52;;;;;;;8.50;5.73;;;;;;;7.81;100.00;99225.94;5075318;28;20208;-62
2021/10/14 07:52:18;;;;;;;7.07;6.07;;;;;;;7.65;100.00;99227.50;5075101;28;20215;-62
2021/10/14 07:54:46;;;;;;;7.57;6.40;;;;;;;7.51;100.00;99235.06;5074837;28;20217;-62
2021/10/14 07:57:15;;;;;;;7.30;6.30;;;;;;;7.43;100.00;99232.75;5074934;28;20208;-62
2021/10/14 07:59:42;;;;;;;10.13;5.80;;;;;;;7.48;100.00;99229.94;5074829;28;20596;-62
2021/10/14 08:02:08;;;;;;;8.40;6.17;;;;;;;7.49;100.00;99232.50;5075012;28;20224;-62
2021/10/14 08:04:35;;;;;;;7.67;6.30;;;;;;;7.53;100.00;99228.81;5074968;28;20215;-62
2021/10/14 08:07:01;;;;;;;9.70;6.07;;;;;;;7.69;100.00;99239.59;5074657;28;20208;-62
2021/10/14 08:09:28;;;;;;;6.97;5.87;;;;;;;7.93;100.00;99233.31;5073069;28;20239;-62
2021/10/14 08:11:56;;;;;;;7.37;5.90;;;;;;;8.20;100.00;99232.22;5074651;28;20217;-62
2021/10/14 08:14:22;;;;;;;6.53;5.77;;;;;;;8.44;100.00;99233.81;5074326;28;20213;-62
2021/10/14 08:16:48;;;;;;;8.43;6.53;;;;;;;8.59;100.00;99235.78;5074813;28;20228;-62
2021/10/14 08:19:15;;;;;;;7.87;5.90;;;;;;;8.76;100.00;99235.88;5074494;28;20229;-62
2021/10/14 08:21:41;;;;;;;7.17;6.13;;;;;;;8.95;100.00;99236.78;5074686;28;20584;-63
2021/10/14 08:24:09;;;;;;;6.60;5.90;;;;;;;9.08;100.00;99232.66;5074377;28;20724;-63
2021/10/14 08:26:35;;;;;;;7.70;6.20;;;;;;;9.15;100.00;99231.44;5074394;28;20223;-62
2021/10/14 08:29:03;;;;;;;7.50;5.80;;;;;;;9.17;100.00;99230.44;5067410;28;20246;-62
2021/10/14 08:31:30;;;;;;;6.27;5.53;;;;;;;9.16;100.00;99227.88;5074423;28;20215;-63
2021/10/14 08:33:56;;;;;;;6.07;5.47;;;;;;;9.09;100.00;99231.72;5072657;28;20205;-62
2021/10/14 08:36:23;;;;;;;7.50;5.50;;;;;;;8.98;100.00;99226.94;5074347;28;20593;-62
2021/10/14 08:38:49;;;;;;;8.30;5.73;;;;;;;8.94;100.00;99227.16;5073573;28;20217;-62
2021/10/14 08:41:18;;;;;;;7.17;5.40;;;;;;;8.96;100.00;99222.66;5073877;28;20680;-63
2021/10/14 08:43:46;;;;;;;7.57;5.20;;;;;;;9.05;100.00;99232.81;5074202;28;20268;-63
2021/10/14 08:46:14;;;;;;;6.80;5.47;;;;;;;9.21;100.00;99232.03;5073785;28;20224;-63
2021/10/14 08:48:42;;;;;;;7.13;5.23;;;;;;;9.43;100.00;99230.06;5073656;28;20235;-63
2021/10/14 08:51:08;;;;;;;7.70;5.20;;;;;;;9.74;100.00;99232.13;5073685;28;20598;-62
2021/10/14 08:53:35;;;;;;;8.33;5.70;;;;;;;10.06;100.00;99231.41;5073974;28;20210;-63
2021/10/14 08:56:01;;;;;;;6.60;5.10;;;;;;;10.43;100.00;99231.25;5073612;28;20214;-62
2021/10/14 08:58:27;;;;;;;5.33;4.53;;;;;;;10.74;100.00;99234.03;5073876;28;20581;-63
2021/10/14 09:01:19;;;;;;;5.47;4.40;;;;;;;11.10;100.00;99227.66;5072125;28;20220;-63
2021/10/14 09:03:48;;;;;;;6.63;4.60;;;;;;;11.36;100.00;99232.38;5057812;28;20216;-64
2021/10/14 09:06:17;;;;;;;6.70;4.80;;;;;;;11.54;97.95;99234.00;5073338;28;20277;-63
2021/10/14 09:08:45;;;;;;;5.27;3.77;;;;;;;11.71;95.58;99226.00;5073492;28;20237;-63
2021/10/14 09:11:16;;;;;;;5.60;4.23;;;;;;;11.82;93.17;99231.56;5067243;28;20215;-63
2021/10/14 09:13:47;;;;;;;6.00;4.40;;;;;;;11.95;91.49;99221.09;5073231;28;20215;-63
2021/10/14 09:16:24;;;;;;;4.60;4.10;;;;;;;12.00;90.05;99217.25;5072997;28;20265;-63
2021/10/14 09:18:51;;;;;;;4.60;4.00;;;;;;;12.03;89.65;99216.19;5073687;28;20609;-63
2021/10/14 09:21:23;;;;;;;4.93;4.23;;;;;;;11.98;87.18;99213.00;5073593;28;20207;-63
2021/10/14 09:23:49;;;;;;;5.33;4.30;;;;;;;11.97;86.39;99209.47;5071025;28;20218;-63
2021/10/14 09:26:29;;;;;;;5.43;4.17;;;;;;;12.00;86.84;99205.78;5071671;28;20216;-62
2021/10/14 09:29:11;;;;;;;5.30;4.30;;;;;;;11.93;86.28;99207.94;5067198;28;20610;-62
2021/10/14 09:31:51;;;;;;;5.53;4.17;;;;;;;11.90;87.18;99202.81;5073138;28;20207;-62
2021/10/14 09:34:25;;;;;;;5.63;4.30;;;;;;;12.00;86.64;99193.41;5073114;28;20705;-62
2021/10/14 09:36:52;;;;;;;4.47;4.07;;;;;;;12.14;85.53;99181.97;5067533;28;20220;-61
2021/10/14 09:39:19;;;;;;;5.00;4.20;;;;;;;12.28;85.66;99182.03;5073176;28;20214;-62
2021/10/14 09:41:45;;;;;;;5.23;4.20;;;;;;;12.37;86.02;99181.47;5073032;28;20219;-62
2021/10/14 09:44:15;;;;;;;5.93;4.30;;;;;;;12.38;84.72;99180.53;5072946;28;20237;-62
2021/10/14 09:46:43;;;;;;;4.20;3.80;;;;;;;12.40;84.92;99184.78;5072641;28;20687;-62
2021/10/14 09:49:12;;;;;;;4.10;3.70;;;;;;;12.25;84.62;99190.16;5071947;28;20271;-62
2021/10/14 09:51:41;;;;;;;6.47;4.30;;;;;;;11.99;85.87;99193.50;5064681;28;20211;-62
2021/10/14 09:54:07;;;;;;;5.07;4.03;;;;;;;11.73;87.25;99186.19;5073009;28;20218;-62
2021/10/14 09:56:34;;;;;;;4.53;3.83;;;;;;;11.63;88.52;99188.50;5072844;28;20215;-62
2021/10/14 09:59:02;;;;;;;4.63;3.93;;;;;;;11.60;85.41;99188.69;5072950;28;20225;-62
2021/10/14 10:01:30;;;;;;;5.53;3.97;;;;;;;11.59;87.19;99180.81;5066504;28;20569;-62
2021/10/14 10:03:57;;;;;;;5.80;4.10;;;;;;;11.64;87.39;99176.13;5072801;28;20216;-62
2021/10/14 10:06:26;;;;;;;4.83;3.90;;;;;;;11.69;87.91;99182.00;5072748;28;20287;-62
2021/10/14 10:08:54;;;;;;;6.10;4.30;;;;;;;11.78;84.20;99178.81;5072766;28;20244;-62
2021/10/14 10:11:23;;;;;;;6.20;4.03;;;;;;;11.72;82.75;99184.47;5072886;28;20214;-62
2021/10/14 10:13:52;;;;;;;4.70;3.97;;;;;;;11.80;84.90;99183.09;5072755;28;20589;-62
2021/10/14 10:16:20;;;;;;;4.70;4.00;;;;;;;11.97;88.22;99184.75;5072804;28;20601;-62
2021/10/14 10:18:47;;;;;;;7.37;4.30;;;;;;;12.04;84.92;99186.13;5070675;28;20675;-62
2021/10/14 10:21:40;;;;;;;5.13;3.83;;;;;;;12.05;84.98;99177.22;5072556;28;20210;-62
2021/10/14 10:24:08;;;;;;;4.80;3.87;;;;;;;12.18;83.80;99173.75;5061941;28;20217;-62
2021/10/14 10:26:54;;;;;;;5.33;4.03;;;;;;;12.31;80.62;99184.50;5072556;28;20227;-62
2021/10/14 10:29:42;;;;;;;4.57;2.93;;;;;;;12.65;78.00;99174.41;5072379;28;20285;-62
2021/10/14 10:32:19;;;;;;;3.07;2.30;;;;;;;13.06;74.96;99180.72;5068911;28;20213;-62
2021/10/14 10:34:51;;;;;;;4.03;2.60;;;;;;;13.50;72.44;99180.56;5072481;28;20261;-62
2021/10/14 10:37:22;;;;;;;4.93;3.63;;;;;;;13.77;70.01;99173.44;5072439;28;20223;-62
2021/10/14 10:39:50;;;;;;;4.60;2.77;;;;;;;13.92;67.86;99169.75;5072242;28;20226;-62
2021/10/14 10:42:18;;;;;;;5.57;2.97;;;;;;;14.11;66.54;99171.09;5072196;28;20214;-62
2021/10/14 10:44:47;;;;;;;3.47;2.60;;;;;;;14.23;67.00;99166.81;5064101;28;20212;-62
2021/10/14 10:47:37;;;;;;;3.17;2.70;;;;;;;14.20;68.38;99167.00;5072363;28;20216;-62
2021/10/14 10:50:05;;;;;;;3.40;2.90;;;;;;;14.05;69.75;99157.38;5056979;28;20258;-62
2021/10/14 10:52:34;;;;;;;3.93;2.77;;;;;;;14.10;69.92;99165.88;5072419;28;20219;-62
2021/10/14 10:55:02;;;;;;;3.73;3.07;;;;;;;14.07;70.15;99160.78;5072382;28;20216;-62
2021/10/14 10:57:45;;;;;;;4.20;3.00;;;;;;;14.14;69.94;99154.94;5071879;28;20211;-62
2021/10/14 11:00:12;;;;;;;4.90;2.80;;;;;;;14.29;71.80;99155.75;5063704;28;20220;-63
2021/10/14 11:02:38;;;;;;;3.83;3.20;;;;;;;14.60;72.90;99155.34;5075770;28;20221;-62
2021/10/14 11:05:06;;;;;;;6.70;3.30;;;;;;;14.91;67.94;99155.75;5076002;28;20211;-63
2021/10/14 11:07:34;;;;;;;2.80;2.50;;;;;;;15.11;65.89;99147.22;5075641;28;20218;-62
2021/10/14 11:10:00;;;;;;;4.40;3.10;;;;;;;15.02;68.80;99141.69;5074191;28;20231;-62
2021/10/14 11:12:27;;;;;;;3.63;2.43;;;;;;;15.16;67.88;99144.22;5075957;28;20591;-62
2021/10/14 11:14:53;;;;;;;3.53;2.57;;;;;;;15.16;64.73;99144.22;5075417;28;20244;-62
2021/10/14 11:17:20;;;;;;;5.57;2.93;;;;;;;15.12;63.76;99137.41;5075644;28;20208;-62
2021/10/14 11:19:47;;;;;;;4.83;2.60;;;;;;;15.19;63.56;99131.53;5075534;28;20216;-62
2021/10/14 11:22:14;;;;;;;3.37;2.60;;;;;;;15.21;63.54;99139.41;5075481;28;20587;-62
2021/10/14 11:24:47;;;;;;;2.80;1.90;;;;;;;15.27;64.76;99131.00;5075315;28;20216;-62
2021/10/14 11:27:14;;;;;;;3.43;2.27;;;;;;;15.25;62.34;99133.75;5071884;28;20679;-61
2021/10/14 11:29:42;;;;;;;3.67;2.60;;;;;;;15.30;61.97;99120.09;5075240;28;20234;-62
2021/10/14 11:32:12;;;;;;;4.07;2.70;;;;;;;15.30;64.41;99120.09;5075476;28;20225;-62
2021/10/14 11:34:40;;;;;;;2.77;2.20;;;;;;;15.35;62.64;99117.97;5075375;28;20223;-63